Rosice, Czech Republic
Current Conditions -  °F | °C
As of 9:45 AM on Tuesday 21 Oct 2014 (Local Time) from LKNA Reporting Station
Moderate Fog Moderate Fog  
Wind Chill: 52°   Ceiling: Unl
Heat Index: 52°   Visibility: 3mi
Dew Point: 52°   Wind: 3mph
Humidity: 100%   Direction: 280°W
Pressure: 29.91"   Gusts: NA
Location:  49.18°N, 16.38°E
Report Text: LKNA 210745Z 28003KT 5000 BR VCFG NSC 11/11 Q1013 RMK WHT
Loading
Personal Weather Stations






























Interactive Weather Map
Tropical Storm Tracking
New forecast layout! Learn more

10-Day Weather Forecast

Advertisements
Track Severe Weather on mobile